VOI1782 MMMX-MMOX
Flight info
| Callsign | VOI1782 |
|---|---|
| Flight time | 0h 41m |
| Altitude | 31000 |
| Route | TEVOS2B TEVOS UT113 OAX |
| Aircraft | A20N/M-SDE2E3FGHIRWXY/LB1 |
Departure
| Time | 2026-05-04 23:28 |
|---|---|
| Airport | Mexico City Benito Juárez International Airport (MMMX) |
Arrival
| Time | 2026-05-05 00:10 |
|---|---|
| Airport | Xoxocotlán International Airport (MMOX) |
| Time | Latitude | Longitude | Altitude | Speed | Heading |
|---|---|---|---|---|---|
| 2026-05-04 23:02 | 19.42152 | -99.07987 | 7305 ft | 0 kts | 28° |
| 2026-05-04 23:10 | 19.42145 | -99.07990 | 7305 ft | 2 kts | 28° |
| 2026-05-04 23:11 | 19.42133 | -99.07997 | 7306 ft | 2 kts | 29° |
| 2026-05-04 23:11 | 19.42124 | -99.08003 | 7306 ft | 2 kts | 30° |
| 2026-05-04 23:11 | 19.42113 | -99.08010 | 7306 ft | 1 kts | 28° |
| 2026-05-04 23:11 | 19.42102 | -99.08008 | 7306 ft | 2 kts | 297° |
| 2026-05-04 23:12 | 19.42098 | -99.07999 | 7306 ft | 1 kts | 300° |
| 2026-05-04 23:12 | 19.42097 | -99.07997 | 7306 ft | 0 kts | 300° |
| 2026-05-04 23:12 | 19.42098 | -99.07999 | 7305 ft | 0 kts | 300° |
| 2026-05-04 23:16 | 19.42101 | -99.08004 | 7305 ft | 2 kts | 300° |
| 2026-05-04 23:16 | 19.42117 | -99.08032 | 7305 ft | 7 kts | 300° |
| 2026-05-04 23:16 | 19.42146 | -99.08086 | 7305 ft | 10 kts | 300° |
| 2026-05-04 23:16 | 19.42187 | -99.08157 | 7305 ft | 11 kts | 301° |
| 2026-05-04 23:17 | 19.42223 | -99.08206 | 7305 ft | 4 kts | 340° |
| 2026-05-04 23:17 | 19.42247 | -99.08206 | 7305 ft | 4 kts | 2° |
| 2026-05-04 23:17 | 19.42290 | -99.08204 | 7305 ft | 8 kts | 2° |
| 2026-05-04 23:17 | 19.42357 | -99.08201 | 7305 ft | 11 kts | 358° |
| 2026-05-04 23:18 | 19.42427 | -99.08230 | 7305 ft | 12 kts | 329° |
| 2026-05-04 23:18 | 19.42506 | -99.08280 | 7305 ft | 15 kts | 330° |
| 2026-05-04 23:18 | 19.42569 | -99.08350 | 7305 ft | 11 kts | 295° |
| 2026-05-04 23:18 | 19.42596 | -99.08418 | 7305 ft | 9 kts | 293° |
| 2026-05-04 23:19 | 19.42619 | -99.08474 | 7305 ft | 7 kts | 293° |
| 2026-05-04 23:19 | 19.42627 | -99.08493 | 7306 ft | 0 kts | 294° |
| 2026-05-04 23:19 | 19.42629 | -99.08498 | 7306 ft | 1 kts | 294° |
| 2026-05-04 23:20 | 19.42630 | -99.08501 | 7306 ft | 0 kts | 294° |
| 2026-05-04 23:25 | 19.42632 | -99.08507 | 7306 ft | 2 kts | 294° |
| 2026-05-04 23:25 | 19.42650 | -99.08547 | 7306 ft | 14 kts | 294° |
| 2026-05-04 23:25 | 19.42676 | -99.08690 | 7306 ft | 21 kts | 274° |
| 2026-05-04 23:26 | 19.42688 | -99.08863 | 7305 ft | 21 kts | 274° |
| 2026-05-04 23:26 | 19.42695 | -99.08966 | 7305 ft | 16 kts | 274° |
| 2026-05-04 23:26 | 19.42724 | -99.09057 | 7305 ft | 8 kts | 335° |
| 2026-05-04 23:26 | 19.42771 | -99.09025 | 7305 ft | 9 kts | 61° |
| 2026-05-04 23:27 | 19.42782 | -99.09006 | 7305 ft | 0 kts | 58° |
| 2026-05-04 23:27 | 19.42812 | -99.08954 | 7305 ft | 31 kts | 59° |
| 2026-05-04 23:27 | 19.43016 | -99.08586 | 7303 ft | 83 kts | 58° |
| 2026-05-04 23:27 | 19.43400 | -99.07899 | 7308 ft | 133 kts | 59° |
| 2026-05-04 23:28 | 19.43941 | -99.06913 | 7331 ft | 170 kts | 65° |
| 2026-05-04 23:28 | 19.44556 | -99.05844 | 7686 ft | 173 kts | 64° |
| 2026-05-04 23:28 | 19.45180 | -99.04734 | 8223 ft | 176 kts | 63° |
| 2026-05-04 23:28 | 19.45786 | -99.03592 | 8913 ft | 179 kts | 62° |
| 2026-05-04 23:29 | 19.46390 | -99.02432 | 9455 ft | 179 kts | 61° |
| 2026-05-04 23:29 | 19.46991 | -99.01271 | 9671 ft | 180 kts | 63° |
| 2026-05-04 23:29 | 19.47581 | -99.00093 | 10005 ft | 182 kts | 64° |
| 2026-05-04 23:29 | 19.48194 | -98.98901 | 10392 ft | 192 kts | 59° |
| 2026-05-04 23:30 | 19.48970 | -98.97626 | 10506 ft | 217 kts | 61° |
| 2026-05-04 23:30 | 19.49451 | -98.96051 | 10709 ft | 237 kts | 91° |
| 2026-05-04 23:30 | 19.48963 | -98.94373 | 10906 ft | 255 kts | 127° |
| 2026-05-04 23:30 | 19.47636 | -98.93036 | 11191 ft | 271 kts | 142° |
| 2026-05-04 23:31 | 19.46075 | -98.91834 | 11642 ft | 280 kts | 144° |
| 2026-05-04 23:31 | 19.44469 | -98.90626 | 12180 ft | 286 kts | 144° |
| 2026-05-04 23:31 | 19.42839 | -98.89381 | 12767 ft | 291 kts | 143° |
| 2026-05-04 23:31 | 19.41190 | -98.88104 | 13357 ft | 297 kts | 142° |
| 2026-05-04 23:32 | 19.39500 | -98.86784 | 13889 ft | 305 kts | 142° |
| 2026-05-04 23:32 | 19.37800 | -98.85450 | 14456 ft | 309 kts | 142° |
| 2026-05-04 23:32 | 19.36069 | -98.84089 | 15168 ft | 308 kts | 142° |
| 2026-05-04 23:32 | 19.34318 | -98.82770 | 15817 ft | 311 kts | 148° |
| 2026-05-04 23:33 | 19.32260 | -98.81989 | 16325 ft | 321 kts | 173° |
| 2026-05-04 23:33 | 19.29976 | -98.81939 | 16623 ft | 337 kts | 183° |
| 2026-05-04 23:33 | 19.27605 | -98.82092 | 16881 ft | 353 kts | 184° |
| 2026-05-04 23:33 | 19.25096 | -98.82277 | 17126 ft | 369 kts | 184° |
| 2026-05-04 23:34 | 19.22572 | -98.82453 | 17363 ft | 382 kts | 183° |
| 2026-05-04 23:34 | 19.19872 | -98.82628 | 17657 ft | 393 kts | 182° |
| 2026-05-04 23:34 | 19.17117 | -98.82799 | 18034 ft | 400 kts | 182° |
| 2026-05-04 23:34 | 19.14315 | -98.82969 | 18468 ft | 404 kts | 182° |
| 2026-05-04 23:35 | 19.11500 | -98.83139 | 18932 ft | 407 kts | 182° |
| 2026-05-04 23:35 | 19.08665 | -98.83308 | 19383 ft | 409 kts | 182° |
| 2026-05-04 23:35 | 19.05811 | -98.83477 | 19842 ft | 412 kts | 182° |
| 2026-05-04 23:35 | 19.02973 | -98.83645 | 20253 ft | 414 kts | 182° |
| 2026-05-04 23:36 | 19.00089 | -98.83816 | 20701 ft | 417 kts | 182° |
| 2026-05-04 23:36 | 18.97178 | -98.83989 | 21156 ft | 419 kts | 182° |
| 2026-05-04 23:36 | 18.94261 | -98.84201 | 21618 ft | 422 kts | 185° |
| 2026-05-04 23:36 | 18.91338 | -98.84602 | 22077 ft | 425 kts | 187° |
| 2026-05-04 23:37 | 18.88410 | -98.85065 | 22474 ft | 428 kts | 187° |
| 2026-05-04 23:37 | 18.85446 | -98.85544 | 22790 ft | 434 kts | 187° |
| 2026-05-04 23:37 | 18.82432 | -98.86029 | 23013 ft | 442 kts | 187° |
| 2026-05-04 23:37 | 18.79376 | -98.86520 | 23337 ft | 446 kts | 187° |
| 2026-05-04 23:38 | 18.76295 | -98.87014 | 23606 ft | 449 kts | 187° |
| 2026-05-04 23:38 | 18.73188 | -98.87510 | 23926 ft | 452 kts | 187° |
| 2026-05-04 23:38 | 18.70059 | -98.88010 | 24269 ft | 454 kts | 187° |
| 2026-05-04 23:38 | 18.66926 | -98.88510 | 24616 ft | 457 kts | 187° |
| 2026-05-04 23:39 | 18.63773 | -98.89013 | 24995 ft | 459 kts | 187° |
| 2026-05-04 23:39 | 18.60608 | -98.89518 | 25352 ft | 461 kts | 187° |
| 2026-05-04 23:39 | 18.57424 | -98.90025 | 25718 ft | 464 kts | 188° |
| 2026-05-04 23:39 | 18.54220 | -98.90535 | 26052 ft | 467 kts | 187° |
| 2026-05-04 23:40 | 18.51037 | -98.91041 | 26369 ft | 471 kts | 187° |
| 2026-05-04 23:40 | 18.47769 | -98.91428 | 26710 ft | 472 kts | 180° |
| 2026-05-04 23:40 | 18.44508 | -98.91052 | 27041 ft | 472 kts | 163° |
| 2026-05-04 23:40 | 18.41489 | -98.89748 | 27388 ft | 470 kts | 147° |
| 2026-05-04 23:41 | 18.38937 | -98.87618 | 27737 ft | 468 kts | 131° |
| 2026-05-04 23:41 | 18.36911 | -98.84924 | 28029 ft | 469 kts | 123° |
| 2026-05-04 23:41 | 18.35047 | -98.82141 | 28350 ft | 471 kts | 123° |
| 2026-05-04 23:41 | 18.33137 | -98.79328 | 28662 ft | 474 kts | 124° |
| 2026-05-04 23:42 | 18.31176 | -98.76511 | 28970 ft | 476 kts | 125° |
| 2026-05-04 23:42 | 18.29192 | -98.73713 | 29292 ft | 479 kts | 125° |
| 2026-05-04 23:42 | 18.27177 | -98.70903 | 29604 ft | 481 kts | 125° |
| 2026-05-04 23:42 | 18.25145 | -98.68084 | 29813 ft | 485 kts | 125° |
| 2026-05-04 23:43 | 18.23094 | -98.65251 | 30044 ft | 488 kts | 126° |
| 2026-05-04 23:43 | 18.21056 | -98.62442 | 30340 ft | 488 kts | 125° |
| 2026-05-04 23:43 | 18.18993 | -98.59601 | 30604 ft | 490 kts | 126° |
| 2026-05-04 23:43 | 18.16923 | -98.56753 | 30801 ft | 489 kts | 126° |
| 2026-05-04 23:44 | 18.12782 | -98.51063 | 30745 ft | 491 kts | 125° |
| 2026-05-04 23:44 | 18.08617 | -98.45345 | 30747 ft | 492 kts | 126° |
| 2026-05-04 23:45 | 18.04453 | -98.39632 | 30750 ft | 492 kts | 125° |
| 2026-05-04 23:45 | 18.00273 | -98.33905 | 30767 ft | 493 kts | 126° |
| 2026-05-04 23:46 | 17.96116 | -98.28212 | 30785 ft | 493 kts | 126° |
| 2026-05-04 23:46 | 17.91957 | -98.22524 | 30780 ft | 482 kts | 126° |
| 2026-05-04 23:47 | 17.89944 | -98.19775 | 30778 ft | 463 kts | 126° |
| 2026-05-04 23:47 | 17.88021 | -98.17150 | 30643 ft | 446 kts | 126° |
| 2026-05-04 23:47 | 17.86161 | -98.14610 | 30410 ft | 433 kts | 126° |
| 2026-05-04 23:47 | 17.84351 | -98.12136 | 30211 ft | 428 kts | 126° |
| 2026-05-04 23:48 | 17.82538 | -98.09659 | 29988 ft | 426 kts | 126° |
| 2026-05-04 23:48 | 17.80735 | -98.07197 | 29568 ft | 425 kts | 125° |
| 2026-05-04 23:48 | 17.78935 | -98.04741 | 28999 ft | 424 kts | 125° |
| 2026-05-04 23:48 | 17.77139 | -98.02292 | 28552 ft | 422 kts | 125° |
| 2026-05-04 23:49 | 17.75355 | -97.99860 | 28081 ft | 419 kts | 125° |
| 2026-05-04 23:49 | 17.73590 | -97.97456 | 27682 ft | 415 kts | 125° |
| 2026-05-04 23:49 | 17.71843 | -97.95077 | 27336 ft | 408 kts | 125° |
| 2026-05-04 23:49 | 17.70124 | -97.92737 | 26727 ft | 403 kts | 125° |
| 2026-05-04 23:50 | 17.68420 | -97.90418 | 26146 ft | 398 kts | 125° |
| 2026-05-04 23:50 | 17.66761 | -97.88160 | 25601 ft | 394 kts | 125° |
| 2026-05-04 23:50 | 17.65095 | -97.85895 | 25015 ft | 390 kts | 125° |
| 2026-05-04 23:50 | 17.63447 | -97.83653 | 24431 ft | 386 kts | 125° |
| 2026-05-04 23:51 | 17.61813 | -97.81431 | 23880 ft | 382 kts | 125° |
| 2026-05-04 23:51 | 17.60195 | -97.79233 | 23284 ft | 378 kts | 125° |
| 2026-05-04 23:51 | 17.58591 | -97.77054 | 22564 ft | 377 kts | 125° |
| 2026-05-04 23:51 | 17.57025 | -97.74927 | 22003 ft | 371 kts | 125° |
| 2026-05-04 23:52 | 17.55434 | -97.72769 | 21463 ft | 366 kts | 125° |
| 2026-05-04 23:52 | 17.53881 | -97.70662 | 20943 ft | 364 kts | 125° |
| 2026-05-04 23:52 | 17.52360 | -97.68596 | 20425 ft | 362 kts | 125° |
| 2026-05-04 23:52 | 17.50824 | -97.66514 | 19901 ft | 360 kts | 125° |
| 2026-05-04 23:53 | 17.49303 | -97.64451 | 19378 ft | 357 kts | 125° |
| 2026-05-04 23:53 | 17.47791 | -97.62401 | 18862 ft | 354 kts | 125° |
| 2026-05-04 23:53 | 17.46291 | -97.60368 | 18351 ft | 352 kts | 125° |
| 2026-05-04 23:53 | 17.44798 | -97.58347 | 17785 ft | 349 kts | 126° |
| 2026-05-04 23:54 | 17.43317 | -97.56340 | 17275 ft | 346 kts | 126° |
| 2026-05-04 23:54 | 17.41847 | -97.54350 | 16780 ft | 344 kts | 126° |
| 2026-05-04 23:54 | 17.40389 | -97.52376 | 16277 ft | 341 kts | 125° |
| 2026-05-04 23:54 | 17.38948 | -97.50426 | 15786 ft | 337 kts | 126° |
| 2026-05-04 23:55 | 17.37522 | -97.48497 | 15299 ft | 333 kts | 126° |
| 2026-05-04 23:55 | 17.36110 | -97.46588 | 14811 ft | 331 kts | 127° |
| 2026-05-04 23:55 | 17.33304 | -97.42808 | 13823 ft | 325 kts | 127° |
| 2026-05-04 23:56 | 17.31923 | -97.40944 | 13298 ft | 324 kts | 127° |
| 2026-05-04 23:56 | 17.30548 | -97.39085 | 12862 ft | 322 kts | 127° |
| 2026-05-04 23:56 | 17.29181 | -97.37237 | 12374 ft | 320 kts | 127° |
| 2026-05-04 23:56 | 17.27836 | -97.35422 | 11908 ft | 318 kts | 127° |
| 2026-05-04 23:57 | 17.26476 | -97.33590 | 11453 ft | 316 kts | 127° |
| 2026-05-04 23:57 | 17.25130 | -97.31772 | 10952 ft | 316 kts | 127° |
| 2026-05-04 23:57 | 17.23799 | -97.29972 | 10748 ft | 309 kts | 127° |
| 2026-05-04 23:57 | 17.22483 | -97.28194 | 10637 ft | 309 kts | 127° |
| 2026-05-04 23:58 | 17.21167 | -97.26416 | 10411 ft | 309 kts | 127° |
| 2026-05-04 23:58 | 17.19849 | -97.24638 | 9973 ft | 309 kts | 128° |
| 2026-05-04 23:58 | 17.18535 | -97.22869 | 9738 ft | 306 kts | 128° |
| 2026-05-04 23:58 | 17.17230 | -97.21112 | 9927 ft | 306 kts | 128° |
| 2026-05-04 23:59 | 17.15923 | -97.19351 | 9988 ft | 306 kts | 128° |
| 2026-05-04 23:59 | 17.14659 | -97.17649 | 9985 ft | 292 kts | 128° |
| 2026-05-04 23:59 | 17.13436 | -97.16000 | 9987 ft | 283 kts | 128° |
| 2026-05-04 23:59 | 17.12231 | -97.14377 | 9953 ft | 283 kts | 128° |
| 2026-05-05 00:00 | 17.11021 | -97.12749 | 9878 ft | 283 kts | 128° |
| 2026-05-05 00:00 | 17.10613 | -97.12202 | 9873 ft | 283 kts | 128° |
| 2026-05-05 00:00 | 17.08612 | -97.09512 | 9872 ft | 282 kts | 128° |
| 2026-05-05 00:00 | 17.07406 | -97.07890 | 9876 ft | 282 kts | 128° |
| 2026-05-05 00:01 | 17.06204 | -97.06276 | 9899 ft | 281 kts | 128° |
| 2026-05-05 00:01 | 17.05002 | -97.04659 | 9841 ft | 281 kts | 128° |
| 2026-05-05 00:01 | 17.03798 | -97.03044 | 9601 ft | 282 kts | 128° |
| 2026-05-05 00:01 | 17.02593 | -97.01425 | 9440 ft | 280 kts | 128° |
| 2026-05-05 00:02 | 17.01441 | -96.99876 | 9423 ft | 266 kts | 128° |
| 2026-05-05 00:02 | 17.00343 | -96.98400 | 9412 ft | 249 kts | 128° |
| 2026-05-05 00:02 | 16.99308 | -96.97012 | 9431 ft | 241 kts | 128° |
| 2026-05-05 00:02 | 16.98283 | -96.95635 | 9448 ft | 239 kts | 128° |
| 2026-05-05 00:03 | 16.97272 | -96.94277 | 9482 ft | 233 kts | 128° |
| 2026-05-05 00:03 | 16.96274 | -96.92939 | 9467 ft | 233 kts | 128° |
| 2026-05-05 00:03 | 16.95276 | -96.91601 | 9462 ft | 233 kts | 129° |
| 2026-05-05 00:03 | 16.94306 | -96.90301 | 9754 ft | 228 kts | 128° |
| 2026-05-05 00:04 | 16.93335 | -96.89000 | 9928 ft | 215 kts | 128° |
| 2026-05-05 00:04 | 16.92474 | -96.87847 | 9953 ft | 196 kts | 126° |
| 2026-05-05 00:04 | 16.91646 | -96.86738 | 9988 ft | 191 kts | 126° |
| 2026-05-05 00:04 | 16.90836 | -96.85650 | 9994 ft | 190 kts | 126° |
| 2026-05-05 00:05 | 16.90023 | -96.84559 | 9990 ft | 191 kts | 127° |
| 2026-05-05 00:05 | 16.89212 | -96.83472 | 9992 ft | 185 kts | 128° |
| 2026-05-05 00:05 | 16.88436 | -96.82433 | 9974 ft | 180 kts | 128° |
| 2026-05-05 00:05 | 16.87664 | -96.81401 | 9982 ft | 179 kts | 128° |
| 2026-05-05 00:06 | 16.86901 | -96.80379 | 9729 ft | 180 kts | 128° |
| 2026-05-05 00:06 | 16.86117 | -96.79329 | 9177 ft | 184 kts | 129° |
| 2026-05-05 00:06 | 16.85484 | -96.78211 | 8800 ft | 178 kts | 108° |
| 2026-05-05 00:06 | 16.85639 | -96.76951 | 8483 ft | 185 kts | 61° |
| 2026-05-05 00:07 | 16.86686 | -96.76161 | 8202 ft | 193 kts | 26° |
| 2026-05-05 00:07 | 16.87543 | -96.75875 | 8193 ft | 196 kts | 18° |
| 2026-05-05 00:07 | 16.89310 | -96.75403 | 7920 ft | 196 kts | 18° |
| 2026-05-05 00:07 | 16.90622 | -96.75054 | 7755 ft | 200 kts | 18° |
| 2026-05-05 00:08 | 16.92022 | -96.74746 | 7519 ft | 205 kts | 14° |
| 2026-05-05 00:08 | 16.93413 | -96.74473 | 7077 ft | 201 kts | 15° |
| 2026-05-05 00:08 | 16.94755 | -96.74099 | 6602 ft | 204 kts | 18° |
| 2026-05-05 00:08 | 16.96161 | -96.73658 | 5804 ft | 215 kts | 17° |
| 2026-05-05 00:09 | 16.97118 | -96.73387 | 5438 ft | 208 kts | 14° |
| 2026-05-05 00:09 | 16.98465 | -96.73006 | 5071 ft | 197 kts | 17° |
| 2026-05-05 00:09 | 16.99725 | -96.72635 | 4986 ft | 177 kts | 16° |
| 2026-05-05 00:09 | 17.00781 | -96.72329 | 4999 ft | 140 kts | 15° |
| 2026-05-05 00:10 | 17.01390 | -96.72189 | 5003 ft | 35 kts | 8° |
| 2026-05-05 00:10 | 17.01433 | -96.72182 | 5002 ft | 1 kts | 8° |
| 2026-05-05 00:10 | 17.01431 | -96.72183 | 5002 ft | 0 kts | 8° |